Nesconset, NY (11767)

7:10 AM EDT on March 28, 2015 (GMT -0400)
Nesconset Extreme | | Change Station
CLOSE
Current Station
Personal Weather Station
Location: Nesconset, NY
Elevation: 92 ft
Nearby Weather Stations

Elev 92 ft 40.85 °N, 73.13 °W | Updated 6 seconds ago

Overcast
Overcast
34.2 °F
Feels Like 34 °F
N
1.8
Wind Variable Wind from NNW
Gusts 2.5 mph

Today
High -- | Low -- °F
--% Chance of Precip.
Yesterday
High -- | Low -- °F
Precip. -- in
6:43 AM 7:12 PM
First Quarter, 61% visible
Pressure 29.72 in
Visibility 9.0 miles
Clouds Overcast 4600 ft
Windchill 34 °F
Dew Point 26 °F
Humidity 73%
Rainfall 0.00 in
Snow Depth Not available.
UV 0 out of 12
Pollen 3.40 out of 12
Air Quality Not available.
Flu Activity Not available.
METAR KISP 281056Z 34012KT 9SM -SN OVC046 02/M03 A2972 RMK AO2 SLP063 P0000 T00171028

More Conditions Fewer Conditions

Pressure 29.72 in
Visibility 9.0 miles
Clouds Overcast 4600 ft
Windchill 34 °F
Dew Point 26 °F
Humidity 73%
Rainfall 0.00 in
Snow Depth Not available.
UV 0 out of 12
Pollen 3.40 out of 12
Air Quality Not available.
Flu Activity Not available.
METAR KISP 281056Z 34012KT 9SM -SN OVC046 02/M03 A2972 RMK AO2 SLP063 P0000 T00171028

More Conditions Fewer Conditions

10-Day Weather Forecast

Almanac

Astronomy

Mar. 28, 2015 Rise Set
Actual Time
Civil Twilight
Nautical Twilight
Astronomical Twilight
Moon
Length of Visible Light
Length of Day
Tomorrow will be .
, % of the Moon is Illuminated

Today's Extremes

State Highs State Lows

Community

WunderPhotos

Upload Photos

1,808,956 photos uploaded!

WunderBlogs® & News

Nearby

Air Quality

  Air Quality AQ Index Pollutant
Not available.

Snow Depth

Station Depth Elevation

Earthquake Activity

City Distance Mag. Time & Date
Minimum magnitude displayed is 2.5.

Coastal Water Temperatures

Place Temperature

Stations

Nearby Weather Stations

Station Location Temp. Windchill Dew Point Humidity Wind Precip. Elev Updated Type